• Join FlightAware (Why Join?)
  • Login
  • US Flag 
03:55AM EST


 

Airport Tracker/Info


-or-


 

Live Flight TrackerFlight Track Log ✈ ASH3733 ✈ 16-Apr-2013 ✈ KPVD - KIAD

Flight Track Log - Related Links

Times and Time Zones

All times are in EDT time to prevent confusion due to time zone crossing. See the ASH3733 flight status page for this flight to view local times or setup timezone preferences in your user account.

Time Position Orientation Groundspeed Altitude Reporting Facility
EDT Latitude Longitude Course Direction KTS MPH feet Rate Location/Type
05:54AM 41.7061 -71.4419 264° West 150 173 900  Level Boston Center
05:55AM 41.7025 -71.4892 264° West 163 188 2,600 2,280 Climbing Boston Center
05:56AM 41.7322 -71.5583 300° West 179 206 5,500 2,820 Climbing Boston Center
05:57AM 41.7889 -71.6300 317° Northwest 234 269 8,300 2,700 Climbing Boston Center
05:58AM 41.8500 -71.7072 317° Northwest 267 307 10,900 2,520 Climbing Boston Center
05:59AM 41.9044 -71.7789 316° Northwest 293 337 13,300 2,820 Climbing Boston Center
06:00AM 41.9614 -71.8733 309° West 307 353 16,500 2,460 Climbing Boston Center
06:01AM 41.9869 -71.9819 288° West 296 341 18,300 1,560 Climbing Boston Center
06:02AM 42.0122 -72.0797 289° West 308 354 19,700 1,620 Climbing Boston Center
06:03AM 42.0083 -72.1942 267° West 308 354 21,600 1,860 Climbing Boston Center
06:04AM 41.9711 -72.3117 247° West 320 368 23,500 1,080 Climbing Boston Center
06:05AM 41.9356 -72.4344 249° West 337 388 23,800 720 Climbing Boston Center
06:06AM 41.8939 -72.5711 248° West 367 422 25,000 1,140 Climbing Boston Center
06:07AM 41.8542 -72.7047 248° West 386 444 26,200 1,140 Climbing Boston Center
06:08AM 41.8119 -72.8439 248° West 394 453 27,400 1,500 Climbing Boston Center
06:09AM 41.7925 -72.9886 260° West 402 463 29,300 1,620 Climbing Boston Center
06:10AM 41.8044 -73.1308 276° West 388 447 30,600 1,380 Climbing Boston Center
06:11AM 41.8158 -73.2675 276° West 381 438 32,000 540 Climbing Boston Center
06:12AM 41.8297 -73.4964 275° West 386 444 32,000  Level New York Center
06:13AM 41.8369 -73.6331 274° West 386 444 32,000  Level New York Center
06:14AM 41.8067 -73.7653 253° West 372 428 32,000  Level New York Center
06:15AM 41.7250 -73.8589 221° Southwest 365 420 32,000  Level New York Center
06:16AM 41.6314 -73.9433 214° Southwest 379 436 32,000  Level New York Center
06:17AM 41.5503 -74.0144 213° Southwest 391 450 32,000  Level New York Center
06:18AM 41.4561 -74.1011 215° Southwest 406 467 32,000  Level New York Center
06:19AM 41.3600 -74.1875 214° Southwest 416 479 32,000 -420 Level New York Center
06:20AM 41.2511 -74.2786 212° Southwest 422 486 31,200 -900 Descending New York Center
06:21AM 41.1547 -74.3672 215° Southwest 427 491 30,300 -960 Descending New York Center
06:22AM 41.0497 -74.4606 214° Southwest 441 507 29,300 -1,080 Descending New York Center
06:23AM 40.9447 -74.5567 215° Southwest 453 521 28,200 -660 Descending New York Center
06:24AM 40.8761 -74.6764 233° Southwest 425 489 28,000 -240 Descending New York Center
06:25AM 40.8361 -74.8167 249° West 419 482 27,800 -960 Descending New York Center
06:26AM 40.7794 -74.9447 240° Southwest 413 475 26,200 -1,440 Descending New York Center
06:27AM 40.7142 -75.0831 238° Southwest 423 487 25,000 -600 Descending New York Center
06:28AM 40.6553 -75.2081 238° Southwest 423 487 25,000  Level New York Center
06:29AM 40.5944 -75.3297 237° Southwest 411 473 25,000 -480 Level New York Center
06:30AM 40.5375 -75.4517 238° Southwest 399 459 24,100 -1,200 Descending New York Center
06:31AM 40.4783 -75.5758 238° Southwest 399 459 22,600 -1,500 Descending New York Center
06:32AM 40.4172 -75.6969 236° Southwest 399 459 21,100 -1,320 Descending New York Center
06:33AM 40.3556 -75.8206 237° Southwest 399 459 20,000 -600 Descending New York Center
06:34AM 40.3011 -75.9256 236° Southwest 394 453 20,000 -300 Level New York Center
06:35AM 40.2436 -76.0436 237° Southwest 394 453 19,500 -1,080 Descending New York Center
06:36AM 40.1794 -76.1719 237° Southwest 389 448 17,900 -1,320 Descending New York Center
06:37AM 40.1222 -76.2842 236° Southwest 389 448 16,900 -1,260 Descending New York Center
06:38AM 40.0686 -76.4019 239° Southwest 389 448 15,500 -780 Descending New York Center
06:40AM 39.9833 -76.5833 239° Southwest 373 429 15,000 -240 Descending Potomac TRACON
06:41AM 39.9333 -76.7000 241° Southwest 376 433 15,000  Level Potomac TRACON
06:42AM 39.8833 -76.8167 241° Southwest 369 425 15,000  Level Potomac TRACON
06:43AM 39.8333 -76.9167 237° Southwest 293 337 15,000  Level Potomac TRACON
06:44AM 39.8000 -76.9833 237° Southwest 291 335 15,000 -720 Level Potomac TRACON
06:45AM 39.7500 -77.0667 232° Southwest 300 345 13,800 -1,440 Descending Potomac TRACON
06:46AM 39.7167 -77.1500 243° Southwest 288 331 12,300 -1,500 Descending Potomac TRACON
06:47AM 39.6833 -77.2333 243° Southwest 278 320 10,800 -1,560 Descending Potomac TRACON
06:48AM 39.6333 -77.3167 232° Southwest 278 320 9,400 -1,380 Descending Potomac TRACON
06:49AM 39.5833 -77.3833 226° Southwest 275 316 8,200 -1,200 Descending Potomac TRACON
06:50AM 39.5667 -77.4667 255° West 236 272 7,000 -660 Descending Potomac TRACON
06:50AM 39.5333 -77.5000 218° Southwest 225 259 7,000  Level Potomac TRACON
06:51AM 39.4667 -77.4667 159° South 235 270 7,000 -420 Level Potomac TRACON
06:52AM 39.4000 -77.4500 169° South 228 262 6,200 -540 Descending Potomac TRACON
06:53AM 39.3500 -77.4500 180° South 215 247 6,000 -480 Descending Potomac TRACON
06:54AM 39.2833 -77.4500 180° South 220 253 5,300 -540 Descending Potomac TRACON
06:55AM 39.2333 -77.4500 180° South 171 197 5,000 -240 Descending Potomac TRACON
06:56AM 39.2000 -77.4500 180° South 157 181 4,900 -600 Descending Potomac TRACON
06:57AM 39.1500 -77.4500 180° South 157 181 3,800 -960 Descending Potomac TRACON
06:58AM 39.1167 -77.4500 180° South 144 166 3,000 -780 Descending Potomac TRACON
06:59AM 39.0667 -77.4500 180° South 143 165 2,300 -780 Descending Potomac TRACON
07:00AM 39.0333 -77.4667 201° Southwest 139 160 1,500 -780 Descending Potomac TRACON
07:01AM 39.0000 -77.4667 180° South 134 154 800 -720 Descending Potomac TRACON